Time;durP1;ratioP1;P1;durP2;ratioP2;P2;SDS_P1;SDS_P2;PMS_P1;PMS_P2;Temp;Humidity;BMP_temperature;BMP_pressure;BME280_temperature;BME280_humidity;BME280_pressure;Samples;Min_cycle;Max_cycle;Signal;HPM_P1;HPM_P2
2022/12/13 00:00:35;;;;;;;14.88;8.27;;;;;;;;;;7394679;19;20107;-68
2022/12/13 00:03:01;;;;;;;16.55;8.95;;;;;;;;;;7395790;19;20488;-68
2022/12/13 00:05:26;;;;;;;18.30;8.52;;;;;;;;;;7392323;19;19999;-68
2022/12/13 00:07:51;;;;;;;25.63;9.60;;;;;;;;;;7394634;19;19990;-69
2022/12/13 00:10:17;;;;;;;32.10;9.95;;;;;;;;;;7394865;19;19999;-68
2022/12/13 00:12:42;;;;;;;17.52;7.43;;;;;;;;;;7395732;19;20427;-68
2022/12/13 00:15:08;;;;;;;21.52;9.52;;;;;;;;;;7396027;19;20023;-68
2022/12/13 00:17:33;;;;;;;16.77;9.25;;;;;;;;;;7393430;19;20460;-68
2022/12/13 00:20:07;;;;;;;21.75;10.82;;;;;;;;;;7394560;19;20508;-69
2022/12/13 00:22:33;;;;;;;20.27;8.65;;;;;;;;;;7393081;19;20050;-68
2022/12/13 00:24:58;;;;;;;21.77;9.32;;;;;;;;;;7394876;19;20450;-68
2022/12/13 00:27:23;;;;;;;13.75;7.72;;;;;;;;;;7392129;19;20017;-68
2022/12/13 00:29:49;;;;;;;19.48;9.23;;;;;;;;;;7394180;19;20005;-68
2022/12/13 00:32:15;;;;;;;20.95;7.97;;;;;;;;;;7394207;19;19994;-67
2022/12/13 00:34:41;;;;;;;21.77;8.43;;;;;;;;;;7394593;19;20002;-68
2022/12/13 00:37:06;;;;;;;20.92;8.95;;;;;;;;;;7392927;19;20047;-68
2022/12/13 00:39:31;;;;;;;20.70;8.30;;;;;;;;;;7393190;19;19996;-68
2022/12/13 00:41:57;;;;;;;18.70;10.38;;;;;;;;;;7393561;19;20441;-67
2022/12/13 00:44:22;;;;;;;20.52;7.78;;;;;;;;;;7393805;19;20073;-68
2022/12/13 00:46:50;;;;;;;20.77;8.82;;;;;;;;;;7394521;19;20019;-68
2022/12/13 00:49:16;;;;;;;23.45;9.68;;;;;;;;;;7395964;19;20452;-68
2022/12/13 00:51:41;;;;;;;21.70;9.05;;;;;;;;;;7392596;19;20005;-67
2022/12/13 00:54:08;;;;;;;22.55;8.70;;;;;;;;;;7391747;19;19998;-68
2022/12/13 00:56:36;;;;;;;22.30;9.70;;;;;;;;;;7392909;19;20015;-68
2022/12/13 00:59:01;;;;;;;18.55;7.28;;;;;;;;;;7395079;19;20005;-68
2022/12/13 01:01:32;;;;;;;19.73;8.48;;;;;;;;;;7391893;19;19999;-68
2022/12/13 01:03:59;;;;;;;31.15;9.35;;;;;;;;;;7392235;19;20530;-68
2022/12/13 01:06:51;;;;;;;15.88;9.18;;;;;;;;;;7390507;19;20118;-67
2022/12/13 01:09:24;;;;;;;25.85;9.65;;;;;;;;;;7386586;19;20743;-68
2022/12/13 01:11:50;;;;;;;22.38;8.77;;;;;;;;;;7386192;19;20010;-68
2022/12/13 01:14:16;;;;;;;11.68;6.40;;;;;;;;;;7386600;19;20020;-68
2022/12/13 01:16:42;;;;;;;14.05;7.53;;;;;;;;;;7388269;19;20007;-68
2022/12/13 01:19:07;;;;;;;15.82;7.43;;;;;;;;;;7390962;19;20006;-68
2022/12/13 01:21:33;;;;;;;18.42;8.40;;;;;;;;;;7386911;19;20468;-68
2022/12/13 01:24:05;;;;;;;25.00;9.23;;;;;;;;;;7388707;19;20354;-68
2022/12/13 01:26:32;;;;;;;24.30;8.55;;;;;;;;;;7391819;19;20013;-68
2022/12/13 01:28:57;;;;;;;19.67;8.95;;;;;;;;;;7394361;19;20006;-68
2022/12/13 01:31:23;;;;;;;18.75;8.73;;;;;;;;;;7389378;19;20019;-68
2022/12/13 01:33:49;;;;;;;19.90;8.00;;;;;;;;;;7391881;19;20015;-68
2022/12/13 01:36:17;;;;;;;21.75;8.90;;;;;;;;;;7394167;19;20188;-68
2022/12/13 01:38:42;;;;;;;18.05;8.70;;;;;;;;;;7401474;19;20113;-68
2022/12/13 01:41:13;;;;;;;24.67;7.82;;;;;;;;;;7402142;19;20007;-68
2022/12/13 01:43:39;;;;;;;18.55;9.60;;;;;;;;;;7396647;19;19998;-68
2022/12/13 01:46:04;;;;;;;29.20;9.30;;;;;;;;;;7397039;19;20027;-68
2022/12/13 01:48:38;;;;;;;18.10;7.75;;;;;;;;;;7399105;19;20480;-68
2022/12/13 01:51:05;;;;;;;14.07;6.35;;;;;;;;;;7400219;19;19999;-67
2022/12/13 01:53:35;;;;;;;19.27;7.55;;;;;;;;;;7397956;19;19991;-68
2022/12/13 01:56:06;;;;;;;15.27;8.40;;;;;;;;;;7397963;19;20013;-68
2022/12/13 01:58:31;;;;;;;;;;;;;;;;;;7401237;19;20393;-68
2022/12/13 02:00:58;;;;;;;11.68;5.78;;;;;;;;;;7401304;19;19917;-67
2022/12/13 02:03:24;;;;;;;23.60;7.47;;;;;;;;;;7399150;19;20012;-67
2022/12/13 02:06:02;;;;;;;13.13;7.65;;;;;;;;;;7396644;19;19999;-68
2022/12/13 02:08:28;;;;;;;14.93;8.00;;;;;;;;;;7398750;19;20003;-68
2022/12/13 02:10:54;;;;;;;16.48;8.23;;;;;;;;;;7398409;19;20002;-68
2022/12/13 02:13:20;;;;;;;16.75;7.00;;;;;;;;;;7395200;19;20022;-68
2022/12/13 02:15:57;;;;;;;12.20;8.80;;;;;;;;;;7395136;19;19991;-68
2022/12/13 02:18:32;;;;;;;10.65;5.68;;;;;;;;;;7399262;19;20530;-68
2022/12/13 02:21:09;;;;;;;19.17;8.95;;;;;;;;;;7400446;19;19994;-68
2022/12/13 02:24:08;;;;;;;14.02;6.85;;;;;;;;;;7396914;19;19999;-68
2022/12/13 02:26:33;;;;;;;28.83;10.27;;;;;;;;;;7395966;19;20007;-68
2022/12/13 02:29:52;;;;;;;13.57;7.15;;;;;;;;;;7399980;19;20508;-68
2022/12/13 02:32:29;;;;;;;8.73;5.97;;;;;;;;;;7394886;19;20041;-68
2022/12/13 02:35:08;;;;;;;11.98;8.18;;;;;;;;;;7398937;19;20033;-68
2022/12/13 02:37:56;;;;;;;16.45;7.55;;;;;;;;;;7396919;19;20475;-68
2022/12/13 02:40:27;;;;;;;16.05;9.20;;;;;;;;;;7398380;19;20011;-68
2022/12/13 02:43:02;;;;;;;21.17;6.47;;;;;;;;;;7397113;19;20006;-68
2022/12/13 02:45:43;;;;;;;18.42;8.05;;;;;;;;;;7393252;19;20003;-67
2022/12/13 02:48:11;;;;;;;11.98;6.63;;;;;;;;;;7393630;19;20011;-67
2022/12/13 02:50:36;;;;;;;23.02;8.68;;;;;;;;;;7396829;19;20460;-68
2022/12/13 02:53:04;;;;;;;13.90;5.63;;;;;;;;;;7398390;19;20002;-67
2022/12/13 02:55:34;;;;;;;14.17;6.87;;;;;;;;;;7393679;19;20002;-67
2022/12/13 02:57:59;;;;;;;8.52;5.15;;;;;;;;;;7399298;19;20107;-66
2022/12/13 03:00:51;;;;;;;12.68;6.30;;;;;;;;;;7397963;19;20452;-68
2022/12/13 03:03:45;;;;;;;10.95;6.63;;;;;;;;;;7396709;19;20074;-67
2022/12/13 03:06:29;;;;;;;14.73;7.43;;;;;;;;;;7394829;19;20002;-67
2022/12/13 03:09:13;;;;;;;13.48;5.97;;;;;;;;;;7396015;19;20028;-68
2022/12/13 03:14:52;;;;;;;8.60;4.43;;;;;;;;;;7397856;19;20010;-68
2022/12/13 03:17:19;;;;;;;5.13;3.30;;;;;;;;;;7396738;19;19995;-67
2022/12/13 03:19:44;;;;;;;18.23;8.50;;;;;;;;;;7394911;19;20002;-67
2022/12/13 03:22:10;;;;;;;22.20;6.40;;;;;;;;;;7396090;19;20001;-67
2022/12/13 03:24:35;;;;;;;17.75;6.65;;;;;;;;;;7396092;19;19999;-67
2022/12/13 03:27:00;;;;;;;11.18;6.65;;;;;;;;;;7394905;19;20003;-67
2022/12/13 03:29:26;;;;;;;17.83;6.97;;;;;;;;;;7395094;19;19991;-66
2022/12/13 03:31:52;;;;;;;20.60;7.18;;;;;;;;;;7395250;19;20027;-66
2022/12/13 03:34:18;;;;;;;17.63;7.32;;;;;;;;;;7395041;19;20007;-67
2022/12/13 03:36:43;;;;;;;22.08;7.90;;;;;;;;;;7395946;19;20441;-67
2022/12/13 03:39:12;;;;;;;18.30;4.28;;;;;;;;;;7398440;19;19999;-67
2022/12/13 03:41:38;;;;;;;16.67;6.93;;;;;;;;;;7392763;19;20513;-67
2022/12/13 03:44:05;;;;;;;15.00;6.43;;;;;;;;;;7397024;19;20006;-67
2022/12/13 03:46:30;;;;;;;32.88;9.05;;;;;;;;;;7396031;19;20013;-67
2022/12/13 03:48:56;;;;;;;19.88;6.70;;;;;;;;;;7397623;19;20066;-68
2022/12/13 03:51:21;;;;;;;24.75;5.60;;;;;;;;;;7392801;19;20681;-67
2022/12/13 03:53:46;;;;;;;19.88;8.65;;;;;;;;;;7392922;19;19995;-67
2022/12/13 03:56:12;;;;;;;14.25;6.82;;;;;;;;;;7397430;19;20007;-67
2022/12/13 03:58:37;;;;;;;16.25;7.03;;;;;;;;;;7398277;19;20066;-67
2022/12/13 04:01:05;;;;;;;30.60;7.10;;;;;;;;;;7398325;19;20023;-67
2022/12/13 04:03:30;;;;;;;12.70;7.72;;;;;;;;;;7393263;19;20464;-66
2022/12/13 04:05:55;;;;;;;13.90;8.18;;;;;;;;;;7391996;19;20002;-67
2022/12/13 04:08:21;;;;;;;19.63;8.07;;;;;;;;;;7393526;19;20003;-66
2022/12/13 04:10:46;;;;;;;29.10;7.28;;;;;;;;;;7395426;19;20007;-68
2022/12/13 04:15:55;;;;;;;14.60;8.73;;;;;;;;;;7397382;19;20026;-66
2022/12/13 04:18:20;;;;;;;19.80;5.88;;;;;;;;;;7391852;19;20452;-66
2022/12/13 04:20:46;;;;;;;19.88;7.60;;;;;;;;;;7396271;19;20015;-68
2022/12/13 04:23:11;;;;;;;14.02;7.50;;;;;;;;;;7393761;19;19998;-68
2022/12/13 04:25:37;;;;;;;12.55;6.28;;;;;;;;;;7392225;19;20442;-67
2022/12/13 04:28:03;;;;;;;15.50;6.90;;;;;;;;;;7394537;19;20022;-67
2022/12/13 04:30:28;;;;;;;15.25;7.07;;;;;;;;;;7395810;19;20030;-66
2022/12/13 04:32:53;;;;;;;15.00;7.53;;;;;;;;;;7394963;19;20036;-66
2022/12/13 04:35:19;;;;;;;17.08;7.07;;;;;;;;;;7395043;19;20096;-67
2022/12/13 04:37:44;;;;;;;15.82;8.13;;;;;;;;;;7392922;19;20007;-66
2022/12/13 04:40:10;;;;;;;15.57;7.63;;;;;;;;;;7394299;19;19999;-66
2022/12/13 04:42:36;;;;;;;16.75;6.60;;;;;;;;;;7394137;19;20562;-66
2022/12/13 04:45:02;;;;;;;14.15;7.70;;;;;;;;;;7395382;19;19998;-67
2022/12/13 04:47:27;;;;;;;21.70;7.97;;;;;;;;;;7391184;19;19990;-67
2022/12/13 04:49:53;;;;;;;12.43;7.00;;;;;;;;;;7391696;19;19995;-67
2022/12/13 04:52:19;;;;;;;18.17;5.57;;;;;;;;;;7393332;19;20003;-66
2022/12/13 04:54:45;;;;;;;22.75;7.20;;;;;;;;;;7394772;19;19995;-67
2022/12/13 04:57:10;;;;;;;15.60;8.13;;;;;;;;;;7394354;19;20003;-66
2022/12/13 04:59:36;;;;;;;12.02;6.18;;;;;;;;;;7390270;19;20448;-66
2022/12/13 05:02:03;;;;;;;14.52;7.57;;;;;;;;;;7392908;19;20026;-67
2022/12/13 05:04:29;;;;;;;16.08;7.57;;;;;;;;;;7391480;19;20032;-68
2022/12/13 05:06:54;;;;;;;21.65;6.13;;;;;;;;;;7393467;19;19998;-68
2022/12/13 05:09:19;;;;;;;18.85;7.50;;;;;;;;;;7391628;19;19995;-67
2022/12/13 05:11:44;;;;;;;11.32;6.10;;;;;;;;;;7389289;19;20007;-66
2022/12/13 05:14:10;;;;;;;15.75;8.27;;;;;;;;;;7393221;19;20453;-68
2022/12/13 05:16:35;;;;;;;17.67;7.43;;;;;;;;;;7391844;19;20070;-66
2022/12/13 05:19:00;;;;;;;11.20;6.43;;;;;;;;;;7394587;19;19991;-66
2022/12/13 05:21:26;;;;;;;21.13;6.72;;;;;;;;;;7389281;19;19990;-66
2022/12/13 05:23:51;;;;;;;15.30;7.20;;;;;;;;;;7390343;19;20464;-68
2022/12/13 05:26:16;;;;;;;17.60;7.03;;;;;;;;;;7389640;19;20362;-68
2022/12/13 05:28:41;;;;;;;16.98;6.03;;;;;;;;;;7392335;19;20069;-68
2022/12/13 05:31:10;;;;;;;15.00;7.20;;;;;;;;;;7392901;19;20097;-68
2022/12/13 05:33:35;;;;;;;19.90;7.15;;;;;;;;;;7390011;19;20055;-67
2022/12/13 05:36:01;;;;;;;11.75;7.40;;;;;;;;;;7391919;19;20040;-68
2022/12/13 05:38:27;;;;;;;27.08;7.93;;;;;;;;;;7233147;19;20477;-68
2022/12/13 05:40:53;;;;;;;13.30;5.68;;;;;;;;;;7391108;19;20058;-67
2022/12/13 05:43:18;;;;;;;14.10;7.40;;;;;;;;;;7392757;19;20019;-68
2022/12/13 05:45:43;;;;;;;13.77;6.45;;;;;;;;;;7391983;19;20006;-67
2022/12/13 05:48:09;;;;;;;14.00;5.35;;;;;;;;;;7393878;19;19994;-66
2022/12/13 05:50:35;;;;;;;10.05;6.25;;;;;;;;;;7392424;19;20110;-66
2022/12/13 05:53:02;;;;;;;14.35;7.65;;;;;;;;;;7390764;19;20077;-66
2022/12/13 05:55:27;;;;;;;15.23;5.43;;;;;;;;;;7391086;19;20528;-67
2022/12/13 05:57:52;;;;;;;11.40;6.65;;;;;;;;;;7388954;19;20003;-66
2022/12/13 06:00:18;;;;;;;16.63;7.45;;;;;;;;;;7387850;19;19991;-67
2022/12/13 06:02:43;;;;;;;11.98;6.35;;;;;;;;;;7392176;19;20024;-67
2022/12/13 06:05:09;;;;;;;18.98;7.82;;;;;;;;;;7388530;19;20002;-67
2022/12/13 06:07:36;;;;;;;20.42;7.53;;;;;;;;;;7387903;19;19994;-66
2022/12/13 06:10:02;;;;;;;12.50;6.65;;;;;;;;;;7391418;19;20008;-67
2022/12/13 06:12:28;;;;;;;16.17;6.70;;;;;;;;;;7391413;19;20481;-67
2022/12/13 06:14:53;;;;;;;15.68;7.00;;;;;;;;;;7392649;19;19995;-68
2022/12/13 06:17:19;;;;;;;18.45;7.88;;;;;;;;;;7388964;19;19994;-66
2022/12/13 06:19:45;;;;;;;16.63;7.40;;;;;;;;;;7393389;19;19998;-67
2022/12/13 06:22:11;;;;;;;12.52;8.82;;;;;;;;;;7392008;19;20016;-67
2022/12/13 06:24:36;;;;;;;20.35;7.70;;;;;;;;;;7398209;19;20014;-67
2022/12/13 06:27:03;;;;;;;11.98;5.28;;;;;;;;;;7397983;19;19999;-68
2022/12/13 06:29:28;;;;;;;15.68;7.15;;;;;;;;;;7395251;19;20094;-68
2022/12/13 06:32:01;;;;;;;16.85;5.75;;;;;;;;;;7337011;19;20501;-68
2022/12/13 06:34:27;;;;;;;29.13;7.18;;;;;;;;;;7393484;19;20003;-69
2022/12/13 06:36:52;;;;;;;17.80;7.68;;;;;;;;;;7393684;19;20523;-68
2022/12/13 06:39:17;;;;;;;12.52;7.28;;;;;;;;;;7395034;19;19999;-67
2022/12/13 06:41:43;;;;;;;15.23;7.07;;;;;;;;;;7390678;19;19991;-68
2022/12/13 06:44:08;;;;;;;18.42;5.57;;;;;;;;;;7385582;19;20386;-68
2022/12/13 06:46:34;;;;;;;13.48;5.93;;;;;;;;;;7389420;19;20003;-66
2022/12/13 06:49:00;;;;;;;13.80;6.85;;;;;;;;;;7392120;19;19990;-72
2022/12/13 06:51:25;;;;;;;10.18;7.10;;;;;;;;;;7393397;19;20455;-71
2022/12/13 06:53:51;;;;;;;14.52;8.65;;;;;;;;;;7363893;19;20006;-71
2022/12/13 06:56:17;;;;;;;14.80;6.57;;;;;;;;;;7389482;19;19998;-71
2022/12/13 06:58:42;;;;;;;10.70;5.30;;;;;;;;;;7391397;19;19991;-71
2022/12/13 07:01:13;;;;;;;10.02;5.65;;;;;;;;;;7389865;19;20027;-71
2022/12/13 07:03:39;;;;;;;12.18;7.38;;;;;;;;;;7386032;19;20117;-72
2022/12/13 07:06:25;;;;;;;18.58;6.93;;;;;;;;;;7382457;19;19999;-71
2022/12/13 07:08:54;;;;;;;13.30;6.53;;;;;;;;;;7390240;19;20039;-71
2022/12/13 07:11:25;;;;;;;12.05;4.88;;;;;;;;;;7395395;19;20519;-70
2022/12/13 07:13:52;;;;;;;10.68;6.50;;;;;;;;;;7391795;19;20010;-71
2022/12/13 07:16:18;;;;;;;8.77;4.65;;;;;;;;;;7391555;19;20350;-71
2022/12/13 07:18:44;;;;;;;12.02;6.30;;;;;;;;;;7392238;19;20021;-71
2022/12/13 07:21:12;;;;;;;9.25;5.82;;;;;;;;;;7394413;19;20028;-70
2022/12/13 07:23:38;;;;;;;12.63;6.40;;;;;;;;;;7388858;19;19999;-71
2022/12/13 07:26:05;;;;;;;8.82;4.65;;;;;;;;;;7389129;19;20009;-70
2022/12/13 07:28:35;;;;;;;25.15;7.55;;;;;;;;;;7392242;19;19994;-71
2022/12/13 07:31:02;;;;;;;13.05;8.23;;;;;;;;;;7394139;19;19998;-71
2022/12/13 07:33:31;;;;;;;16.95;9.00;;;;;;;;;;7392017;19;20360;-71
2022/12/13 07:36:05;;;;;;;13.63;4.97;;;;;;;;;;7391816;19;20006;-71
2022/12/13 07:38:32;;;;;;;16.58;5.38;;;;;;;;;;7392328;19;20041;-71
2022/12/13 07:40:57;;;;;;;13.30;7.18;;;;;;;;;;7393649;19;19999;-70
2022/12/13 07:43:23;;;;;;;8.63;4.63;;;;;;;;;;7393289;19;20512;-71
2022/12/13 07:45:49;;;;;;;11.20;6.53;;;;;;;;;;7389987;19;20437;-71
2022/12/13 07:48:15;;;;;;;24.30;6.80;;;;;;;;;;7390861;19;20005;-71
2022/12/13 07:50:43;;;;;;;15.25;5.82;;;;;;;;;;7392527;19;20078;-70
2022/12/13 07:53:08;;;;;;;20.00;7.15;;;;;;;;;;7392475;19;20460;-70
2022/12/13 07:55:35;;;;;;;15.15;7.13;;;;;;;;;;7390633;19;20498;-69
2022/12/13 07:58:05;;;;;;;18.02;8.85;;;;;;;;;;7394092;19;20019;-70
2022/12/13 08:00:31;;;;;;;16.73;7.80;;;;;;;;;;7392573;19;19999;-70
2022/12/13 08:02:56;;;;;;;13.75;7.05;;;;;;;;;;7390105;19;20006;-70
2022/12/13 08:05:21;;;;;;;15.88;6.97;;;;;;;;;;7391415;19;20002;-70
2022/12/13 08:07:47;;;;;;;16.75;9.18;;;;;;;;;;7388419;19;19998;-70
2022/12/13 08:10:12;;;;;;;18.83;8.13;;;;;;;;;;7392703;19;20511;-71
2022/12/13 08:12:38;;;;;;;16.17;6.45;;;;;;;;;;7389721;19;20487;-71
2022/12/13 08:15:04;;;;;;;18.67;7.28;;;;;;;;;;7390425;19;20028;-72
2022/12/13 08:17:29;;;;;;;11.70;6.10;;;;;;;;;;7389599;19;19999;-71
2022/12/13 08:19:55;;;;;;;17.35;7.75;;;;;;;;;;7392122;19;20006;-71
2022/12/13 08:22:20;;;;;;;17.92;6.20;;;;;;;;;;7390930;19;20357;-71
2022/12/13 08:24:45;;;;;;;10.85;5.80;;;;;;;;;;7389826;19;19999;-71
2022/12/13 08:27:11;;;;;;;19.60;7.35;;;;;;;;;;7390926;19;20003;-70
2022/12/13 08:29:36;;;;;;;14.07;7.75;;;;;;;;;;7388239;19;20009;-71
2022/12/13 08:32:07;;;;;;;12.10;5.65;;;;;;;;;;7387928;19;20006;-71
2022/12/13 08:34:32;;;;;;;17.25;6.65;;;;;;;;;;7389607;19;20466;-70
2022/12/13 08:36:58;;;;;;;24.33;8.80;;;;;;;;;;7390231;19;20019;-71
2022/12/13 08:39:24;;;;;;;16.75;6.32;;;;;;;;;;7391004;19;20009;-70
2022/12/13 08:41:49;;;;;;;24.00;7.20;;;;;;;;;;7389128;19;20493;-71
2022/12/13 08:44:14;;;;;;;19.30;8.05;;;;;;;;;;7389275;19;20058;-69
2022/12/13 08:46:40;;;;;;;18.00;8.30;;;;;;;;;;7386741;19;20074;-71
2022/12/13 08:49:05;;;;;;;11.70;6.60;;;;;;;;;;7391590;19;20396;-71
2022/12/13 08:51:30;;;;;;;20.55;7.22;;;;;;;;;;7389390;19;20362;-69
2022/12/13 08:53:55;;;;;;;15.70;6.88;;;;;;;;;;7386819;19;20013;-70
2022/12/13 08:56:21;;;;;;;12.82;5.88;;;;;;;;;;7387074;19;20011;-71
2022/12/13 08:58:50;;;;;;;18.20;7.32;;;;;;;;;;7389954;19;20005;-70
2022/12/13 09:04:00;;;;;;;16.13;7.00;;;;;;;;;;7391175;19;20383;-71
2022/12/13 09:06:25;;;;;;;17.35;7.18;;;;;;;;;;7387199;19;20003;-70
2022/12/13 09:08:54;;;;;;;16.55;7.22;;;;;;;;;;7390238;19;20015;-70
2022/12/13 09:11:20;;;;;;;12.63;6.03;;;;;;;;;;7391017;19;19994;-70
2022/12/13 09:13:45;;;;;;;20.75;8.35;;;;;;;;;;7388278;19;20321;-70
2022/12/13 09:16:14;;;;;;;16.23;6.88;;;;;;;;;;7387668;19;20018;-71
2022/12/13 09:18:39;;;;;;;19.90;7.95;;;;;;;;;;7389286;19;19995;-70
2022/12/13 09:21:09;;;;;;;19.52;7.60;;;;;;;;;;7387951;19;20001;-71
2022/12/13 09:23:35;;;;;;;17.53;7.37;;;;;;;;;;7389177;19;20023;-73
2022/12/13 09:26:01;;;;;;;20.23;7.93;;;;;;;;;;7387196;19;20003;-70
2022/12/13 09:28:30;;;;;;;13.32;6.93;;;;;;;;;;7388611;19;20019;-70
2022/12/13 09:30:56;;;;;;;22.00;8.27;;;;;;;;;;7388076;19;20503;-70
2022/12/13 09:33:22;;;;;;;16.52;8.00;;;;;;;;;;7386753;19;20022;-69
2022/12/13 09:35:48;;;;;;;18.42;8.73;;;;;;;;;;7383257;19;19999;-71
2022/12/13 09:38:14;;;;;;;11.93;6.65;;;;;;;;;;7391102;19;20508;-71
2022/12/13 09:40:43;;;;;;;22.58;8.82;;;;;;;;;;7391125;19;20330;-70
2022/12/13 09:43:19;;;;;;;18.70;7.53;;;;;;;;;;7387795;19;20050;-71
2022/12/13 09:45:46;;;;;;;21.33;8.60;;;;;;;;;;7383975;19;20009;-70
2022/12/13 09:48:18;;;;;;;21.00;8.85;;;;;;;;;;7390184;19;20535;-71
2022/12/13 09:50:43;;;;;;;19.55;7.72;;;;;;;;;;7388256;19;19998;-70
2022/12/13 09:53:14;;;;;;;19.15;8.60;;;;;;;;;;7389105;19;20463;-71
2022/12/13 09:55:45;;;;;;;15.20;7.45;;;;;;;;;;7387549;19;20015;-72
2022/12/13 09:58:17;;;;;;;21.40;9.18;;;;;;;;;;7394877;19;20001;-73
2022/12/13 10:00:42;;;;;;;;;;;;;;;;;;7396933;19;19998;-72
2022/12/13 10:03:13;;;;;;;16.48;7.07;;;;;;;;;;7395671;19;20345;-72
2022/12/13 10:05:42;;;;;;;23.80;7.88;;;;;;;;;;7393088;19;20800;-72
2022/12/13 10:08:12;;;;;;;20.80;8.50;;;;;;;;;;7397044;19;20377;-72
2022/12/13 10:10:38;;;;;;;15.65;7.38;;;;;;;;;;7395534;19;19991;-72
2022/12/13 10:13:18;;;;;;;22.52;9.20;;;;;;;;;;7394439;19;19990;-73
2022/12/13 10:15:49;;;;;;;17.13;5.88;;;;;;;;;;7392836;19;19995;-72
2022/12/13 10:18:24;;;;;;;14.50;7.32;;;;;;;;;;7397129;19;20002;-72
2022/12/13 10:20:50;;;;;;;20.42;8.00;;;;;;;;;;7394315;19;20083;-70
2022/12/13 10:23:15;;;;;;;18.88;8.70;;;;;;;;;;7394190;19;19999;-70
2022/12/13 10:25:56;;;;;;;18.88;8.43;;;;;;;;;;7392152;19;20021;-74
2022/12/13 10:28:32;;;;;;;13.30;6.50;;;;;;;;;;7394426;19;20006;-75
2022/12/13 10:30:58;;;;;;;19.80;8.13;;;;;;;;;;7395293;19;20012;-75
2022/12/13 10:33:28;;;;;;;21.02;9.40;;;;;;;;;;7391873;19;19998;-75
2022/12/13 10:36:08;;;;;;;20.75;8.02;;;;;;;;;;7393585;19;20002;-75
2022/12/13 10:38:45;;;;;;;20.13;9.20;;;;;;;;;;7395631;19;20003;-74
2022/12/13 10:41:28;;;;;;;14.40;7.88;;;;;;;;;;7395008;19;20012;-75
2022/12/13 10:44:06;;;;;;;18.17;7.65;;;;;;;;;;7393799;19;20094;-74
2022/12/13 10:46:32;;;;;;;19.90;8.38;;;;;;;;;;7392461;19;20007;-76
2022/12/13 10:49:00;;;;;;;36.42;8.05;;;;;;;;;;7394454;19;20022;-74
2022/12/13 10:51:26;;;;;;;5.95;3.80;;;;;;;;;;7393095;19;20002;-69
2022/12/13 10:53:55;;;;;;;23.73;8.52;;;;;;;;;;7392126;19;20500;-69
2022/12/13 10:56:31;;;;;;;23.05;9.35;;;;;;;;;;7393123;19;20002;-69
2022/12/13 10:59:26;;;;;;;23.45;10.02;;;;;;;;;;7394140;19;20366;-72
2022/12/13 11:01:51;;;;;;;27.95;12.23;;;;;;;;;;7393094;19;20012;-72
2022/12/13 11:04:34;;;;;;;22.60;8.65;;;;;;;;;;7392870;19;19999;-72
2022/12/13 11:07:20;;;;;;;23.30;9.20;;;;;;;;;;7388270;19;20003;-72
2022/12/13 11:09:45;;;;;;;16.48;7.07;;;;;;;;;;7390251;19;20353;-70
2022/12/13 11:12:15;;;;;;;17.73;7.90;;;;;;;;;;7395304;19;20073;-71
2022/12/13 11:14:48;;;;;;;20.90;8.45;;;;;;;;;;7391078;19;20515;-69
2022/12/13 11:17:19;;;;;;;19.40;7.90;;;;;;;;;;7389592;19;20062;-71
2022/12/13 11:19:48;;;;;;;19.15;8.18;;;;;;;;;;7394256;19;20033;-70
2022/12/13 11:22:27;;;;;;;16.75;8.18;;;;;;;;;;7394043;19;20472;-72
2022/12/13 11:25:00;;;;;;;14.13;6.78;;;;;;;;;;7391794;19;20002;-68
2022/12/13 11:27:48;;;;;;;20.42;8.32;;;;;;;;;;7389545;19;19998;-68
2022/12/13 11:30:29;;;;;;;15.70;7.72;;;;;;;;;;7391809;19;20258;-69
2022/12/13 11:33:20;;;;;;;20.45;7.35;;;;;;;;;;7392268;19;20009;-70
2022/12/13 11:36:15;;;;;;;17.93;7.43;;;;;;;;;;7391492;19;20062;-69
2022/12/13 11:39:17;;;;;;;14.70;6.35;;;;;;;;;;7394354;19;20659;-69
2022/12/13 11:42:01;;;;;;;17.50;8.27;;;;;;;;;;7390281;19;20002;-69
2022/12/13 11:44:35;;;;;;;22.17;8.15;;;;;;;;;;7391836;19;20338;-69
2022/12/13 11:47:04;;;;;;;16.58;7.82;;;;;;;;;;7391489;19;20015;-68
2022/12/13 11:49:38;;;;;;;18.50;7.22;;;;;;;;;;7393271;19;19994;-67
2022/12/13 11:52:22;;;;;;;19.58;7.18;;;;;;;;;;7393172;19;20058;-69
2022/12/13 11:54:59;;;;;;;16.75;6.65;;;;;;;;;;7392389;19;20003;-69
2022/12/13 11:57:43;;;;;;;19.02;7.88;;;;;;;;;;7391023;19;20011;-70
2022/12/13 12:00:32;;;;;;;16.05;6.85;;;;;;;;;;7392993;19;19998;-69
2022/12/13 12:03:20;;;;;;;10.13;5.32;;;;;;;;;;7391182;19;20532;-70
2022/12/13 12:05:54;;;;;;;12.68;6.68;;;;;;;;;;7389765;19;20496;-69
2022/12/13 12:08:22;;;;;;;12.82;5.00;;;;;;;;;;7392403;19;20006;-69
2022/12/13 12:11:01;;;;;;;15.27;6.93;;;;;;;;;;7393399;19;19999;-69
2022/12/13 12:13:36;;;;;;;14.63;6.30;;;;;;;;;;7392666;19;20009;-69
2022/12/13 12:16:16;;;;;;;13.88;6.15;;;;;;;;;;7391751;19;20003;-69
2022/12/13 12:18:42;;;;;;;12.27;6.03;;;;;;;;;;7393063;19;20325;-68
2022/12/13 12:21:19;;;;;;;7.60;3.97;;;;;;;;;;7391987;19;19994;-70
2022/12/13 12:24:16;;;;;;;9.25;4.20;;;;;;;;;;7390678;19;20027;-70
2022/12/13 12:26:53;;;;;;;10.25;5.07;;;;;;;;;;7389412;19;19998;-69
2022/12/13 12:29:44;;;;;;;9.20;4.40;;;;;;;;;;7391815;19;20523;-68
2022/12/13 12:32:23;;;;;;;;;;;;;;;;;;7392784;19;19995;-69
2022/12/13 12:34:57;;;;;;;11.45;5.82;;;;;;;;;;7390830;19;19919;-68
2022/12/13 12:37:50;;;;;;;9.75;4.07;;;;;;;;;;7389764;19;19994;-68
2022/12/13 12:40:25;;;;;;;12.48;6.10;;;;;;;;;;7392020;19;20054;-68
2022/12/13 12:43:08;;;;;;;13.25;6.68;;;;;;;;;;7389890;19;20078;-68
2022/12/13 12:45:58;;;;;;;8.18;3.90;;;;;;;;;;7390418;19;20361;-69
2022/12/13 12:48:31;;;;;;;10.18;5.07;;;;;;;;;;7390817;19;19999;-70
2022/12/13 12:51:27;;;;;;;8.80;4.20;;;;;;;;;;7390876;19;19994;-71
2022/12/13 12:54:18;;;;;;;6.45;3.83;;;;;;;;;;7388614;19;20452;-71
2022/12/13 12:57:10;;;;;;;7.55;4.03;;;;;;;;;;7386765;19;20006;-69
2022/12/13 12:59:47;;;;;;;12.38;6.10;;;;;;;;;;7386109;19;20031;-69
2022/12/13 13:02:13;;;;;;;9.98;4.75;;;;;;;;;;7390403;19;20066;-68
2022/12/13 13:04:47;;;;;;;11.35;3.70;;;;;;;;;;7386696;19;19998;-69
2022/12/13 13:07:35;;;;;;;11.80;6.07;;;;;;;;;;7385327;19;20010;-70
2022/12/13 13:10:03;;;;;;;10.32;4.60;;;;;;;;;;7388073;19;20010;-70
2022/12/13 13:12:31;;;;;;;12.75;5.93;;;;;;;;;;7389825;19;20003;-70
2022/12/13 13:14:56;;;;;;;12.02;6.63;;;;;;;;;;7389751;19;20036;-70
2022/12/13 13:17:25;;;;;;;11.93;6.07;;;;;;;;;;7387426;19;20074;-71
2022/12/13 13:20:11;;;;;;;16.05;6.65;;;;;;;;;;7390095;19;20014;-70
2022/12/13 13:22:37;;;;;;;13.88;6.00;;;;;;;;;;7388039;19;20616;-69
2022/12/13 13:25:06;;;;;;;11.30;4.82;;;;;;;;;;7379888;19;19998;-69
2022/12/13 13:27:38;;;;;;;15.52;6.07;;;;;;;;;;7383710;19;20476;-68
2022/12/13 13:30:24;;;;;;;13.18;5.50;;;;;;;;;;7385815;19;20021;-68
2022/12/13 13:32:52;;;;;;;11.77;5.00;;;;;;;;;;7390265;19;20003;-68
2022/12/13 13:35:30;;;;;;;13.57;6.20;;;;;;;;;;7394733;19;20017;-69
2022/12/13 13:37:56;;;;;;;15.18;6.82;;;;;;;;;;7389060;19;20006;-69
2022/12/13 13:40:27;;;;;;;9.27;4.47;;;;;;;;;;7393180;19;20012;-69
2022/12/13 13:43:13;;;;;;;;;;;;;;;;;;7395936;19;20002;-69
2022/12/13 13:46:01;;;;;;;12.05;6.45;;;;;;;;;;7392178;19;20292;-69
2022/12/13 13:48:39;;;;;;;12.13;5.18;;;;;;;;;;7396136;19;20535;-69
2022/12/13 13:51:19;;;;;;;6.65;4.13;;;;;;;;;;7397232;19;20125;-69
2022/12/13 13:53:52;;;;;;;10.40;5.63;;;;;;;;;;7397370;19;20005;-70
2022/12/13 13:56:36;;;;;;;8.85;4.38;;;;;;;;;;7396305;19;20023;-70
2022/12/13 13:59:26;;;;;;;11.95;5.10;;;;;;;;;;7397677;19;20031;-70
2022/12/13 14:02:19;;;;;;;9.57;4.15;;;;;;;;;;7397703;19;19998;-70
2022/12/13 14:05:12;;;;;;;8.32;4.53;;;;;;;;;;7370401;19;19999;-69
2022/12/13 14:08:02;;;;;;;9.65;4.82;;;;;;;;;;7391958;19;20460;-69
2022/12/13 14:10:28;;;;;;;8.52;4.25;;;;;;;;;;7395373;19;20018;-69
2022/12/13 14:13:35;;;;;;;10.23;4.68;;;;;;;;;;7395229;19;20535;-69
2022/12/13 14:16:42;;;;;;;11.02;6.03;;;;;;;;;;7391839;19;20126;-70
2022/12/13 14:19:07;;;;;;;10.38;4.97;;;;;;;;;;7396756;19;20003;-70
2022/12/13 14:22:03;;;;;;;13.30;6.85;;;;;;;;;;7397183;19;20183;-70
2022/12/13 14:24:52;;;;;;;10.50;4.97;;;;;;;;;;7393310;19;20373;-69
2022/12/13 14:27:43;;;;;;;14.93;5.70;;;;;;;;;;7394366;19;19999;-69
2022/12/13 14:30:19;;;;;;;13.60;6.40;;;;;;;;;;7393746;19;20002;-69
2022/12/13 14:32:46;;;;;;;12.98;5.45;;;;;;;;;;7394180;19;19999;-70
2022/12/13 14:35:27;;;;;;;15.25;5.68;;;;;;;;;;7394233;19;19995;-69
2022/12/13 14:38:00;;;;;;;8.48;4.15;;;;;;;;;;7390949;19;20011;-70
2022/12/13 14:40:31;;;;;;;12.40;6.80;;;;;;;;;;7392587;19;20326;-69
2022/12/13 14:42:57;;;;;;;13.68;5.72;;;;;;;;;;7394665;19;20381;-69
2022/12/13 14:45:28;;;;;;;20.10;6.40;;;;;;;;;;7394573;19;20006;-70
2022/12/13 14:47:59;;;;;;;13.85;7.15;;;;;;;;;;7391223;19;20464;-69
2022/12/13 14:50:27;;;;;;;12.60;5.53;;;;;;;;;;7391987;19;20475;-70
2022/12/13 14:52:54;;;;;;;12.52;5.75;;;;;;;;;;7393891;19;20553;-69
2022/12/13 14:55:32;;;;;;;17.35;5.75;;;;;;;;;;7395600;19;20461;-69
2022/12/13 14:57:59;;;;;;;16.60;6.72;;;;;;;;;;7390669;19;20017;-69
2022/12/13 15:00:38;;;;;;;14.95;5.30;;;;;;;;;;7394397;19;20676;-71